Time;durP1;ratioP1;P1;durP2;ratioP2;P2;SDS_P1;SDS_P2;PMS_P1;PMS_P2;Temp;Humidity;BMP_temperature;BMP_pressure;BME280_temperature;BME280_humidity;BME280_pressure;Samples;Min_cycle;Max_cycle;Signal;HPM_P1;HPM_P2
2024/01/22 00:01:39;;;;;;;2.30;2.08;;;-4.20;99.90;;;;;;4946927;28;20035;-71
2024/01/22 00:04:06;;;;;;;1.15;1.15;;;-4.20;99.90;;;;;;4928129;29;20023;-72
2024/01/22 00:06:34;;;;;;;1.00;1.00;;;-4.20;99.90;;;;;;4947848;29;20030;-73
2024/01/22 00:09:00;;;;;;;2.27;2.07;;;-4.20;99.90;;;;;;4951881;29;20035;-71
2024/01/22 00:11:25;;;;;;;1.98;1.88;;;-4.20;99.90;;;;;;4944830;29;20564;-71
2024/01/22 00:13:51;;;;;;;2.67;2.50;;;-4.20;99.90;;;;;;4947289;28;21537;-71
2024/01/22 00:16:17;;;;;;;1.20;1.20;;;-4.20;99.90;;;;;;4951018;29;20047;-74
2024/01/22 00:18:42;;;;;;;1.15;1.15;;;-4.20;99.90;;;;;;4952922;29;20024;-72
2024/01/22 00:21:08;;;;;;;2.42;2.22;;;-4.20;99.90;;;;;;4957166;28;20094;-73
2024/01/22 00:23:33;;;;;;;1.65;1.60;;;-4.20;99.90;;;;;;4952187;28;20047;-72
2024/01/22 00:25:59;;;;;;;4.20;1.90;;;-4.20;99.90;;;;;;4951444;28;20393;-73
2024/01/22 00:28:25;;;;;;;3.38;1.70;;;-4.20;99.90;;;;;;4952281;28;20118;-73
2024/01/22 00:30:50;;;;;;;3.38;2.20;;;-4.20;99.90;;;;;;4935788;29;20035;-72
2024/01/22 00:33:16;;;;;;;2.95;1.83;;;-4.20;99.90;;;;;;4948959;28;20038;-74
2024/01/22 00:35:41;;;;;;;2.83;2.58;;;-4.10;99.90;;;;;;4948309;29;20047;-72
2024/01/22 00:38:07;;;;;;;2.53;2.28;;;-4.10;99.90;;;;;;4949251;28;20484;-74
2024/01/22 00:40:32;;;;;;;4.85;2.33;;;-4.10;99.90;;;;;;4954255;29;20028;-71
2024/01/22 00:42:58;;;;;;;1.77;1.63;;;-4.10;99.90;;;;;;4947509;29;20023;-72
2024/01/22 00:45:24;;;;;;;2.35;2.15;;;-4.10;99.90;;;;;;4927344;29;20035;-71
2024/01/22 00:47:49;;;;;;;2.10;2.00;;;-4.10;99.90;;;;;;4931718;29;20042;-71
2024/01/22 00:50:15;;;;;;;2.10;2.00;;;-4.10;99.90;;;;;;4940777;28;20035;-71
2024/01/22 00:52:40;;;;;;;2.78;1.98;;;-4.10;99.90;;;;;;4938366;29;20354;-72
2024/01/22 00:55:06;;;;;;;4.10;2.70;;;-4.10;99.90;;;;;;4944541;28;20163;-72
2024/01/22 00:57:32;;;;;;;2.50;2.30;;;-4.10;99.90;;;;;;4944825;28;20035;-72
2024/01/22 00:59:57;;;;;;;4.20;3.17;;;-4.20;99.90;;;;;;4947625;28;20182;-71
2024/01/22 01:02:23;;;;;;;4.47;4.15;;;-4.20;99.90;;;;;;4939162;28;20036;-71
2024/01/22 01:04:49;;;;;;;5.15;3.70;;;-4.10;99.90;;;;;;4931928;28;20031;-71
2024/01/22 01:07:15;;;;;;;1.40;1.40;;;-4.10;99.90;;;;;;4942798;28;20114;-72
2024/01/22 01:09:40;;;;;;;2.50;1.95;;;-4.30;99.90;;;;;;4944385;28;20058;-72
2024/01/22 01:12:06;;;;;;;2.10;2.00;;;-4.60;99.90;;;;;;4925394;29;20035;-72
2024/01/22 01:14:32;;;;;;;6.00;2.75;;;-4.80;99.90;;;;;;4943284;28;20042;-71
2024/01/22 01:16:58;;;;;;;5.18;2.72;;;-4.70;99.90;;;;;;4944836;28;20106;-71
2024/01/22 01:19:24;;;;;;;2.20;2.00;;;-4.70;99.90;;;;;;4929432;29;21148;-71
2024/01/22 01:21:50;;;;;;;6.95;6.38;;;-4.60;99.90;;;;;;4938160;28;20071;-71
2024/01/22 01:24:15;;;;;;;7.53;6.20;;;-4.60;99.90;;;;;;4948916;28;20117;-72
2024/01/22 01:26:42;;;;;;;4.38;4.03;;;-4.70;99.90;;;;;;4943531;29;20190;-71
2024/01/22 01:29:08;;;;;;;4.57;3.60;;;-4.70;99.90;;;;;;4946216;28;20027;-71
2024/01/22 01:31:34;;;;;;;3.60;1.58;;;-4.60;99.90;;;;;;4944161;29;20054;-71
2024/01/22 01:34:00;;;;;;;1.92;1.77;;;-4.60;99.90;;;;;;4946095;29;20036;-70
2024/01/22 01:36:25;;;;;;;4.10;2.10;;;-4.60;99.90;;;;;;4946872;28;20513;-71
2024/01/22 01:38:51;;;;;;;1.98;1.88;;;-4.70;99.90;;;;;;4943747;29;20075;-71
2024/01/22 01:41:17;;;;;;;2.78;2.63;;;-4.70;99.90;;;;;;4952056;28;20031;-71
2024/01/22 01:43:42;;;;;;;3.40;1.90;;;-4.80;99.90;;;;;;4944572;29;20034;-71
2024/01/22 01:46:08;;;;;;;2.08;1.98;;;-4.70;99.90;;;;;;4926984;29;20121;-71
2024/01/22 01:48:34;;;;;;;1.85;1.75;;;-4.60;99.90;;;;;;4941629;29;20512;-70
2024/01/22 01:51:03;;;;;;;2.00;1.90;;;-4.60;99.90;;;;;;4946542;28;20039;-71
2024/01/22 01:53:29;;;;;;;;;;;-4.60;99.90;;;;;;4948718;29;20046;-71
2024/01/22 01:55:55;;;;;;;2.50;2.28;;;-4.60;99.90;;;;;;4938903;29;19911;-71
2024/01/22 01:58:22;;;;;;;4.07;2.25;;;-4.60;99.90;;;;;;4947738;28;20031;-70
2024/01/22 02:00:52;;;;;;;1.27;1.27;;;-4.70;99.90;;;;;;4941400;28;20035;-71
2024/01/22 02:03:17;;;;;;;2.47;2.38;;;-4.60;99.90;;;;;;4945457;29;20382;-71
2024/01/22 02:05:44;;;;;;;7.22;1.65;;;-4.60;99.90;;;;;;4942161;29;20029;-71
2024/01/22 02:08:10;;;;;;;2.05;1.88;;;-4.60;99.90;;;;;;4944397;28;20045;-70
2024/01/22 02:10:35;;;;;;;1.30;1.30;;;-4.50;99.90;;;;;;4943300;29;20399;-70
2024/01/22 02:13:04;;;;;;;1.80;1.80;;;-4.50;99.90;;;;;;4947487;29;20046;-71
2024/01/22 02:15:30;;;;;;;1.40;1.40;;;-4.50;99.90;;;;;;4941641;28;20030;-70
2024/01/22 02:18:02;;;;;;;1.58;1.58;;;-4.70;99.90;;;;;;4943324;29;20135;-71
2024/01/22 02:20:29;;;;;;;1.98;1.88;;;-4.70;99.90;;;;;;4942960;29;20078;-71
2024/01/22 02:22:59;;;;;;;1.83;1.70;;;-4.80;99.90;;;;;;4942158;29;20706;-70
2024/01/22 02:25:25;;;;;;;1.77;1.48;;;-4.80;99.90;;;;;;4949018;28;20520;-70
2024/01/22 02:27:51;;;;;;;1.25;1.23;;;-4.80;99.90;;;;;;4944958;28;20035;-70
2024/01/22 02:30:16;;;;;;;1.33;1.33;;;-4.80;99.90;;;;;;4928584;29;20035;-71
2024/01/22 02:33:29;;;;;;;1.20;1.20;;;-4.80;99.90;;;;;;4926741;28;20122;-71
2024/01/22 02:35:54;;;;;;;0.90;0.90;;;-4.80;99.90;;;;;;4940225;28;20043;-71
2024/01/22 02:38:20;;;;;;;1.48;1.48;;;-4.80;99.90;;;;;;4937671;29;20111;-73
2024/01/22 02:40:46;;;;;;;1.48;1.45;;;-4.80;99.90;;;;;;4942642;29;20110;-72
2024/01/22 02:43:11;;;;;;;1.33;1.33;;;-4.70;99.90;;;;;;4930089;29;20038;-72
2024/01/22 02:45:37;;;;;;;1.23;1.23;;;-4.60;99.90;;;;;;4921233;29;20019;-71
2024/01/22 02:48:03;;;;;;;1.30;1.30;;;-4.60;99.90;;;;;;4928491;29;20146;-71
2024/01/22 02:50:28;;;;;;;1.48;1.40;;;-4.50;99.90;;;;;;4943038;29;20036;-71
2024/01/22 02:52:54;;;;;;;1.55;1.55;;;-4.30;99.90;;;;;;4944730;28;20046;-71
2024/01/22 02:55:20;;;;;;;1.50;1.40;;;-4.00;99.90;;;;;;4944923;28;20417;-71
2024/01/22 02:57:45;;;;;;;1.30;1.30;;;-3.90;99.90;;;;;;4943442;28;20035;-71
2024/01/22 03:00:13;;;;;;;1.20;1.20;;;-3.90;99.90;;;;;;4946241;28;20358;-71
2024/01/22 03:02:38;;;;;;;1.63;1.52;;;-3.90;99.90;;;;;;4941841;28;20438;-72
2024/01/22 03:05:04;;;;;;;1.52;1.52;;;-3.90;99.90;;;;;;4945027;29;20023;-71
2024/01/22 03:07:30;;;;;;;1.83;1.50;;;-3.80;99.90;;;;;;4926017;29;20038;-71
2024/01/22 03:09:55;;;;;;;1.27;1.27;;;-3.90;99.90;;;;;;4949566;28;20437;-70
2024/01/22 03:12:21;;;;;;;1.35;1.35;;;-3.80;99.90;;;;;;4949277;28;20038;-71
2024/01/22 03:14:47;;;;;;;1.75;1.10;;;-3.70;99.90;;;;;;4943139;28;20031;-72
2024/01/22 03:17:12;;;;;;;2.85;1.38;;;-3.80;99.90;;;;;;4922571;29;20377;-72
2024/01/22 03:19:38;;;;;;;1.20;1.20;;;-3.80;99.90;;;;;;4942167;29;20030;-71
2024/01/22 03:22:04;;;;;;;1.20;1.20;;;-3.70;99.90;;;;;;4941679;29;20085;-72
2024/01/22 03:24:29;;;;;;;1.42;1.42;;;-3.60;99.90;;;;;;4941114;28;20149;-70
2024/01/22 03:26:55;;;;;;;4.75;1.63;;;-3.40;99.90;;;;;;4943304;29;20035;-71
2024/01/22 03:29:20;;;;;;;1.20;1.20;;;-3.20;99.90;;;;;;4943980;29;20027;-71
2024/01/22 03:31:46;;;;;;;1.48;1.30;;;-3.20;99.90;;;;;;4927045;29;20107;-71
2024/01/22 03:34:12;;;;;;;2.50;2.30;;;-3.10;99.90;;;;;;4921911;29;20569;-72
2024/01/22 03:36:37;;;;;;;1.75;1.30;;;-2.90;99.90;;;;;;4939201;28;20023;-73
2024/01/22 03:39:04;;;;;;;0.90;0.90;;;-2.80;99.90;;;;;;4940363;28;20027;-72
2024/01/22 03:41:29;;;;;;;1.23;1.23;;;-2.70;99.90;;;;;;4944769;28;20110;-73
2024/01/22 03:43:55;;;;;;;1.20;1.20;;;-2.50;99.90;;;;;;4926572;29;20125;-72
2024/01/22 03:46:21;;;;;;;1.02;1.02;;;-2.40;99.90;;;;;;4925347;29;20121;-73
2024/01/22 03:48:46;;;;;;;1.10;1.10;;;-2.30;99.90;;;;;;4941902;29;20031;-73
2024/01/22 03:51:12;;;;;;;1.52;1.20;;;-2.30;99.90;;;;;;4936090;29;20038;-74
2024/01/22 03:53:38;;;;;;;1.45;1.40;;;-2.10;99.90;;;;;;4930589;29;20035;-73
2024/01/22 03:56:05;;;;;;;1.20;1.20;;;-2.20;99.90;;;;;;4946022;28;20226;-72
2024/01/22 03:58:32;;;;;;;1.33;1.33;;;-2.20;99.90;;;;;;4946342;28;20062;-72
2024/01/22 04:00:58;;;;;;;1.67;1.42;;;-2.30;99.90;;;;;;4940229;28;20043;-74
2024/01/22 04:03:24;;;;;;;1.00;1.00;;;-2.30;99.90;;;;;;4949529;29;20031;-72
2024/01/22 04:05:50;;;;;;;1.58;1.48;;;-2.40;99.90;;;;;;4946703;29;20242;-71
2024/01/22 04:08:15;;;;;;;1.75;1.40;;;-2.50;99.90;;;;;;4931211;29;20497;-72
2024/01/22 04:10:41;;;;;;;2.17;2.08;;;-2.50;99.90;;;;;;4944141;28;20035;-72
2024/01/22 04:13:06;;;;;;;1.95;1.20;;;-2.40;99.90;;;;;;4941893;28;20484;-73
2024/01/22 04:15:33;;;;;;;2.80;2.03;;;-2.40;99.90;;;;;;4947244;28;20031;-71
2024/01/22 04:17:58;;;;;;;1.45;1.35;;;-2.50;99.90;;;;;;4947556;28;20409;-73
2024/01/22 04:20:24;;;;;;;2.17;1.42;;;-2.50;99.90;;;;;;4941456;28;20087;-72
2024/01/22 04:22:51;;;;;;;1.70;1.60;;;-2.40;99.90;;;;;;4940003;29;20437;-72
2024/01/22 04:25:17;;;;;;;8.13;5.40;;;-2.20;99.90;;;;;;4929433;29;20565;-72
2024/01/22 04:27:42;;;;;;;3.33;3.05;;;-2.10;99.90;;;;;;4939583;28;20106;-72
2024/01/22 04:30:08;;;;;;;3.85;3.55;;;-2.10;99.90;;;;;;4939341;28;20046;-72
2024/01/22 04:32:34;;;;;;;5.18;4.22;;;-2.00;99.90;;;;;;4933630;28;20067;-72
2024/01/22 04:35:00;;;;;;;2.17;1.98;;;-2.00;99.90;;;;;;4935533;28;20191;-73
2024/01/22 04:37:26;;;;;;;1.73;1.70;;;-2.00;99.90;;;;;;4940477;28;20119;-72
2024/01/22 04:39:52;;;;;;;2.15;1.58;;;-2.10;99.90;;;;;;4937474;28;20166;-72
2024/01/22 04:42:20;;;;;;;10.18;2.90;;;-2.20;99.90;;;;;;4940742;28;20106;-71
2024/01/22 04:44:46;;;;;;;2.97;1.83;;;-2.20;99.90;;;;;;4939005;29;20027;-72
2024/01/22 04:47:11;;;;;;;2.35;1.70;;;-2.20;99.90;;;;;;4928039;28;20500;-73
2024/01/22 04:49:37;;;;;;;2.40;1.65;;;-2.10;99.90;;;;;;4947410;28;20027;-72
2024/01/22 04:52:03;;;;;;;2.38;2.17;;;-2.10;99.90;;;;;;4946069;28;20039;-73
2024/01/22 04:54:28;;;;;;;3.05;2.08;;;-2.10;99.90;;;;;;4931736;29;20031;-72
2024/01/22 04:56:54;;;;;;;3.40;2.00;;;-2.10;99.90;;;;;;4947456;29;20050;-73
2024/01/22 04:59:20;;;;;;;1.13;1.10;;;-2.10;99.90;;;;;;4944594;28;20023;-73
2024/01/22 05:01:46;;;;;;;1.10;1.10;;;-2.10;99.90;;;;;;4948898;29;20453;-72
2024/01/22 05:04:11;;;;;;;0.90;0.90;;;-2.10;99.90;;;;;;4932204;29;20038;-72
2024/01/22 05:06:37;;;;;;;1.58;1.30;;;-2.10;99.90;;;;;;4952052;29;20031;-74
2024/01/22 05:09:04;;;;;;;1.20;1.20;;;-2.20;99.90;;;;;;4947610;28;20035;-72
2024/01/22 05:11:30;;;;;;;1.30;1.30;;;-2.30;99.90;;;;;;4945735;29;20027;-71
2024/01/22 05:13:56;;;;;;;1.45;1.35;;;-2.30;99.90;;;;;;4952731;29;20043;-71
2024/01/22 05:16:22;;;;;;;1.73;1.50;;;-2.30;99.90;;;;;;4949073;29;20126;-72
2024/01/22 05:18:51;;;;;;;1.30;1.30;;;-2.40;99.90;;;;;;4948764;29;20520;-72
2024/01/22 05:21:16;;;;;;;18.52;15.65;;;-2.40;99.90;;;;;;4938316;28;20019;-73
2024/01/22 05:23:43;;;;;;;3.55;3.33;;;-2.40;99.90;;;;;;4946580;28;20058;-72
2024/01/22 05:26:08;;;;;;;3.38;3.08;;;-2.40;99.90;;;;;;4936380;29;20031;-73
2024/01/22 05:28:34;;;;;;;1.30;1.30;;;-2.30;99.90;;;;;;4950843;28;20115;-73
2024/01/22 05:31:01;;;;;;;1.38;1.38;;;-2.30;99.90;;;;;;4932066;28;20071;-72
2024/01/22 05:33:30;;;;;;;2.35;2.03;;;-2.20;99.90;;;;;;4948763;29;20027;-72
2024/01/22 05:35:55;;;;;;;;;;;-2.20;99.90;;;;;;4944404;29;20035;-73
2024/01/22 05:38:25;;;;;;;1.20;1.20;;;-2.30;99.90;;;;;;4941884;28;19982;-72
2024/01/22 05:40:50;;;;;;;1.55;1.55;;;-2.30;99.90;;;;;;4944193;28;20023;-72
2024/01/22 05:43:16;;;;;;;2.83;2.45;;;-2.40;99.90;;;;;;4944718;28;20393;-72
2024/01/22 05:45:42;;;;;;;2.42;2.28;;;-2.40;99.90;;;;;;4943118;28;20031;-74
2024/01/22 05:48:09;;;;;;;1.85;1.75;;;-2.40;99.90;;;;;;4928618;29;20573;-73
2024/01/22 05:50:41;;;;;;;1.20;1.20;;;-2.30;99.90;;;;;;4928639;29;20031;-73
2024/01/22 05:53:07;;;;;;;1.25;1.20;;;-2.30;99.90;;;;;;4929449;29;20057;-73
2024/01/22 05:55:32;;;;;;;2.72;2.00;;;-2.20;99.90;;;;;;4928797;28;20497;-73
2024/01/22 05:57:58;;;;;;;1.67;1.52;;;-2.10;99.90;;;;;;4946150;28;20028;-73
2024/01/22 06:00:23;;;;;;;2.58;2.05;;;-2.10;99.90;;;;;;4934001;28;20114;-72
2024/01/22 06:02:49;;;;;;;1.60;1.50;;;-2.10;99.90;;;;;;4941897;29;20037;-73
2024/01/22 06:05:15;;;;;;;1.48;1.45;;;-2.20;99.90;;;;;;4943248;28;20071;-71
2024/01/22 06:07:41;;;;;;;3.00;1.50;;;-2.10;99.90;;;;;;4937341;28;20433;-72
2024/01/22 06:10:08;;;;;;;1.52;1.50;;;-2.10;99.90;;;;;;4944782;28;20023;-72
2024/01/22 06:12:36;;;;;;;2.33;2.13;;;-2.20;99.90;;;;;;4940720;29;20036;-71
2024/01/22 06:15:03;;;;;;;2.35;1.77;;;-2.20;99.90;;;;;;4922496;28;20098;-72
2024/01/22 06:17:31;;;;;;;2.17;2.08;;;-2.20;99.90;;;;;;4942996;28;20023;-72
2024/01/22 06:19:59;;;;;;;5.03;3.38;;;-2.10;99.90;;;;;;4946794;28;20038;-72
2024/01/22 06:22:25;;;;;;;8.18;3.63;;;-2.10;99.90;;;;;;4945240;29;20283;-71
2024/01/22 06:24:51;;;;;;;7.13;3.42;;;-2.00;99.90;;;;;;4940504;28;20082;-70
2024/01/22 06:27:17;;;;;;;2.58;1.95;;;-2.00;99.90;;;;;;4945382;28;20200;-72
2024/01/22 06:29:42;;;;;;;0.80;0.80;;;-2.00;99.90;;;;;;4942780;28;20046;-72
2024/01/22 06:32:08;;;;;;;6.50;4.45;;;-2.00;99.90;;;;;;4944590;28;20324;-71
2024/01/22 06:34:35;;;;;;;6.03;4.68;;;-2.10;99.90;;;;;;4943094;29;20078;-71
2024/01/22 06:37:04;;;;;;;1.85;1.77;;;-2.10;99.90;;;;;;4925971;29;20723;-71
2024/01/22 06:39:30;;;;;;;7.65;4.97;;;-2.10;99.90;;;;;;4926376;29;20023;-72
2024/01/22 06:41:56;;;;;;;8.18;3.45;;;-2.10;99.90;;;;;;4942812;29;20028;-72
2024/01/22 06:44:22;;;;;;;1.67;1.58;;;-2.10;99.90;;;;;;4942023;29;20089;-71
2024/01/22 06:46:47;;;;;;;2.40;1.52;;;-2.00;99.90;;;;;;4945344;28;20089;-71
2024/01/22 06:49:13;;;;;;;3.47;2.25;;;-2.00;99.90;;;;;;4942205;28;20560;-72
2024/01/22 06:51:42;;;;;;;2.08;1.88;;;-2.10;99.90;;;;;;4939538;28;20095;-72
2024/01/22 06:54:07;;;;;;;2.75;2.00;;;-2.10;99.90;;;;;;4924445;28;20433;-73
2024/01/22 06:56:33;;;;;;;1.75;1.75;;;-2.10;99.90;;;;;;4921340;29;20329;-72
2024/01/22 06:58:59;;;;;;;1.40;1.40;;;-2.10;99.90;;;;;;4922538;28;20031;-71
2024/01/22 07:01:27;;;;;;;2.40;2.20;;;-2.00;99.90;;;;;;4945683;29;20027;-72
2024/01/22 07:03:54;;;;;;;1.50;1.40;;;-2.00;99.90;;;;;;4944786;29;20039;-72
2024/01/22 07:06:19;;;;;;;2.15;2.03;;;-2.00;99.90;;;;;;4953319;29;20035;-73
2024/01/22 07:08:45;;;;;;;1.77;1.67;;;-1.90;99.90;;;;;;4947787;28;20032;-73
2024/01/22 07:11:12;;;;;;;2.75;2.10;;;-1.90;99.90;;;;;;4941695;29;20035;-72
2024/01/22 07:13:38;;;;;;;4.68;4.32;;;-1.90;99.90;;;;;;4924924;29;20138;-77
2024/01/22 07:16:07;;;;;;;6.85;5.78;;;-1.90;99.90;;;;;;4929399;29;20054;-73
2024/01/22 07:18:34;;;;;;;3.72;3.38;;;-1.80;99.90;;;;;;4929218;29;20118;-73
2024/01/22 07:21:00;;;;;;;3.85;3.13;;;-1.80;99.90;;;;;;4939999;29;20051;-73
2024/01/22 07:23:26;;;;;;;1.98;1.92;;;-1.80;99.90;;;;;;4945571;28;20039;-73
2024/01/22 07:25:54;;;;;;;2.38;1.90;;;-1.70;99.90;;;;;;4949872;28;20098;-72
2024/01/22 07:28:20;;;;;;;2.17;2.05;;;-1.70;99.90;;;;;;4929136;28;20035;-74
2024/01/22 07:30:45;;;;;;;3.63;2.30;;;-1.60;99.90;;;;;;4928759;29;20409;-73
2024/01/22 07:33:11;;;;;;;2.75;2.53;;;-1.50;99.90;;;;;;4944174;28;20039;-74
2024/01/22 07:35:36;;;;;;;1.75;1.65;;;-1.50;99.90;;;;;;4945017;28;20122;-72
2024/01/22 07:38:05;;;;;;;1.70;1.63;;;-1.40;99.90;;;;;;4946207;28;20034;-73
2024/01/22 07:40:30;;;;;;;3.33;2.33;;;-1.40;99.90;;;;;;4946925;28;20094;-73
2024/01/22 07:42:56;;;;;;;2.47;1.88;;;-1.30;99.90;;;;;;4944307;28;20051;-73
2024/01/22 07:45:22;;;;;;;2.20;2.10;;;-1.20;99.90;;;;;;4927446;28;20043;-73
2024/01/22 07:47:47;;;;;;;4.57;1.77;;;-1.20;99.90;;;;;;4946242;28;20086;-74
2024/01/22 07:50:14;;;;;;;1.95;1.63;;;-1.20;99.90;;;;;;4949587;28;20039;-74
2024/01/22 07:52:40;;;;;;;3.75;1.92;;;-1.10;99.90;;;;;;4934717;28;20086;-71
2024/01/22 07:55:17;;;;;;;1.98;1.88;;;-1.10;99.90;;;;;;4951528;28;20023;-73
2024/01/22 07:57:52;;;;;;;8.07;3.87;;;-1.00;99.90;;;;;;4951361;28;20042;-74
2024/01/22 08:00:21;;;;;;;2.47;2.28;;;-0.90;99.90;;;;;;4924381;28;20023;-73
2024/01/22 08:03:07;;;;;;;8.20;2.50;;;-0.70;99.90;;;;;;4942357;28;20040;-74
2024/01/22 08:05:33;;;;;;;2.20;2.10;;;-0.40;99.90;;;;;;4929473;29;20046;-74
2024/01/22 08:07:58;;;;;;;4.60;2.60;;;-0.10;99.90;;;;;;4947013;28;20477;-74
2024/01/22 08:10:25;;;;;;;11.05;2.67;;;0.10;99.90;;;;;;4951720;28;20030;-74
2024/01/22 08:12:50;;;;;;;2.17;1.95;;;0.40;99.90;;;;;;4948388;28;20033;-73
2024/01/22 08:15:17;;;;;;;2.10;1.45;;;0.50;99.90;;;;;;4948037;29;20035;-74
2024/01/22 08:17:45;;;;;;;4.10;2.42;;;0.60;99.90;;;;;;4926504;29;20039;-74
2024/01/22 08:20:11;;;;;;;1.55;1.45;;;0.90;99.90;;;;;;4948061;29;20492;-74
2024/01/22 08:22:36;;;;;;;1.77;1.67;;;1.20;99.90;;;;;;4943561;28;20059;-73
2024/01/22 08:25:03;;;;;;;2.40;1.58;;;1.40;99.90;;;;;;4949239;28;20031;-71
2024/01/22 08:27:29;;;;;;;1.50;1.50;;;1.50;99.90;;;;;;4945275;28;20027;-71
2024/01/22 08:29:54;;;;;;;1.48;1.48;;;1.60;99.90;;;;;;4946679;28;20572;-73
2024/01/22 08:32:20;;;;;;;1.17;1.17;;;1.70;99.90;;;;;;4937104;29;20401;-73
2024/01/22 08:34:46;;;;;;;2.65;0.82;;;1.90;99.90;;;;;;4954052;29;20035;-73
2024/01/22 08:37:11;;;;;;;1.98;1.17;;;2.10;97.90;;;;;;4950559;28;20031;-74
2024/01/22 08:39:37;;;;;;;1.23;1.10;;;2.10;99.80;;;;;;4942993;28;20051;-73
2024/01/22 08:42:02;;;;;;;1.00;1.00;;;2.20;99.50;;;;;;4949847;29;20027;-73
2024/01/22 08:44:28;;;;;;;0.98;0.98;;;2.40;99.40;;;;;;4945127;29;20023;-73
2024/01/22 08:46:54;;;;;;;1.48;1.38;;;2.50;97.10;;;;;;4926570;29;20038;-74
2024/01/22 08:49:20;;;;;;;1.48;1.35;;;2.60;97.70;;;;;;4940379;29;20031;-73
2024/01/22 08:51:45;;;;;;;1.83;1.60;;;2.60;98.10;;;;;;4943310;29;20134;-73
2024/01/22 08:54:13;;;;;;;1.50;1.40;;;2.80;97.00;;;;;;4931789;29;20110;-73
2024/01/22 08:56:39;;;;;;;1.02;0.95;;;2.90;96.70;;;;;;4941362;29;20043;-72
2024/01/22 08:59:05;;;;;;;1.15;1.10;;;3.00;95.80;;;;;;4948223;28;20264;-70
2024/01/22 09:01:31;;;;;;;1.48;1.10;;;3.00;95.20;;;;;;4942969;29;20038;-72
2024/01/22 09:03:57;;;;;;;1.10;1.10;;;3.20;94.90;;;;;;4943782;28;20301;-71
2024/01/22 09:06:23;;;;;;;1.10;1.05;;;3.30;93.70;;;;;;4948577;28;20388;-72
2024/01/22 09:08:48;;;;;;;1.10;1.10;;;3.30;94.40;;;;;;4940910;28;20123;-73
2024/01/22 09:11:19;;;;;;;1.10;1.00;;;3.50;93.50;;;;;;4945451;29;20035;-71
2024/01/22 09:13:45;;;;;;;1.20;1.20;;;3.50;93.40;;;;;;4941156;28;20042;-71
2024/01/22 09:16:14;;;;;;;1.05;1.02;;;3.50;94.20;;;;;;4933572;29;20074;-71
2024/01/22 09:18:42;;;;;;;1.67;1.40;;;3.60;94.10;;;;;;4933359;29;20028;-72
2024/01/22 09:21:08;;;;;;;1.07;1.07;;;3.80;92.30;;;;;;4932087;29;20583;-71
2024/01/22 09:23:34;;;;;;;1.10;1.05;;;3.80;93.20;;;;;;4949030;29;20082;-72
2024/01/22 09:25:59;;;;;;;2.83;1.50;;;3.90;92.70;;;;;;4942034;28;21959;-70
2024/01/22 09:28:30;;;;;;;0.95;0.95;;;3.90;93.20;;;;;;4928198;29;20026;-70
2024/01/22 09:30:59;;;;;;;1.40;1.20;;;4.00;92.20;;;;;;4946034;28;20058;-70
2024/01/22 09:33:26;;;;;;;0.90;0.90;;;4.00;92.80;;;;;;4939165;28;20024;-70
2024/01/22 09:35:51;;;;;;;1.58;1.30;;;4.00;92.90;;;;;;4924299;29;20176;-70
2024/01/22 09:38:18;;;;;;;0.93;0.90;;;4.00;92.90;;;;;;4941897;28;20087;-71
2024/01/22 09:40:44;;;;;;;1.00;1.00;;;4.10;92.10;;;;;;4927406;29;20094;-70
2024/01/22 09:43:10;;;;;;;1.45;1.30;;;4.10;92.70;;;;;;4942077;29;20089;-73
2024/01/22 09:45:36;;;;;;;1.85;1.40;;;4.10;91.70;;;;;;4947322;28;20569;-71
2024/01/22 09:48:03;;;;;;;1.20;1.20;;;4.10;91.90;;;;;;4931878;29;20740;-71
2024/01/22 09:50:29;;;;;;;0.70;0.70;;;4.10;91.60;;;;;;4930919;29;20055;-71
2024/01/22 09:53:04;;;;;;;7.05;1.30;;;4.20;91.50;;;;;;4930083;29;20157;-72
2024/01/22 09:55:41;;;;;;;0.93;0.93;;;4.10;92.20;;;;;;4941070;28;20038;-70
2024/01/22 09:58:09;;;;;;;1.13;1.13;;;4.30;90.70;;;;;;4944504;28;20106;-70
2024/01/22 10:00:39;;;;;;;1.23;1.13;;;4.30;90.80;;;;;;4945382;28;20054;-70
2024/01/22 10:03:04;;;;;;;2.20;1.38;;;4.30;91.90;;;;;;4936453;29;20553;-70
2024/01/22 10:05:31;;;;;;;1.00;1.00;;;4.40;91.00;;;;;;4946922;28;20056;-71
2024/01/22 10:07:57;;;;;;;1.10;1.00;;;4.40;90.90;;;;;;4934190;29;20035;-72
2024/01/22 10:10:23;;;;;;;1.40;1.30;;;4.50;91.40;;;;;;4947884;28;20035;-71
2024/01/22 10:13:07;;;;;;;1.40;1.30;;;4.50;91.60;;;;;;4943691;29;20110;-72
2024/01/22 10:15:34;;;;;;;1.30;1.23;;;4.50;91.30;;;;;;4933769;29;20024;-71
2024/01/22 10:18:18;;;;;;;0.90;0.90;;;4.60;91.20;;;;;;4943879;28;20171;-71
2024/01/22 10:20:46;;;;;;;1.10;1.00;;;4.80;90.00;;;;;;4930764;29;20047;-72
2024/01/22 10:23:13;;;;;;;0.93;0.93;;;4.70;91.30;;;;;;4954550;28;20062;-70
2024/01/22 10:25:40;;;;;;;1.63;1.00;;;4.70;91.60;;;;;;4951852;28;20030;-72
2024/01/22 10:28:09;;;;;;;1.88;1.40;;;4.80;91.10;;;;;;4931049;28;20421;-72
2024/01/22 10:30:37;;;;;;;5.65;1.45;;;5.00;89.70;;;;;;4926491;28;20059;-72
2024/01/22 10:33:14;;;;;;;1.77;1.13;;;5.00;90.80;;;;;;4950420;28;20527;-71
2024/01/22 10:35:40;;;;;;;0.80;0.80;;;5.00;91.20;;;;;;4950048;28;20496;-70
2024/01/22 10:38:11;;;;;;;1.30;1.20;;;5.10;90.80;;;;;;4935965;28;20055;-72
2024/01/22 10:40:39;;;;;;;0.82;0.82;;;5.10;91.40;;;;;;4932421;28;20039;-72
2024/01/22 10:43:22;;;;;;;1.10;0.95;;;5.10;91.00;;;;;;4953514;28;20032;-71
2024/01/22 10:45:49;;;;;;;1.00;1.00;;;5.20;91.40;;;;;;4950086;29;20027;-73
2024/01/22 10:48:20;;;;;;;1.27;1.10;;;5.30;91.70;;;;;;4950736;28;20023;-72
2024/01/22 10:50:46;;;;;;;1.10;1.00;;;5.30;91.50;;;;;;4945510;28;20816;-73
2024/01/22 10:53:12;;;;;;;1.08;1.00;;;5.40;91.50;;;;;;4943775;28;20031;-71
2024/01/22 10:55:38;;;;;;;0.93;0.93;;;5.50;91.10;;;;;;4944310;28;20042;-71
2024/01/22 10:58:21;;;;;;;0.98;0.98;;;5.60;91.30;;;;;;4942722;28;20465;-72
2024/01/22 11:00:50;;;;;;;1.92;1.25;;;5.60;91.20;;;;;;4941924;28;22111;-71
2024/01/22 11:03:18;;;;;;;1.08;1.00;;;5.70;91.40;;;;;;4938774;29;20033;-71
2024/01/22 11:05:46;;;;;;;1.07;0.97;;;5.70;92.20;;;;;;4931296;29;20035;-71
2024/01/22 11:08:15;;;;;;;1.38;1.00;;;5.80;91.60;;;;;;4944305;29;20289;-71
2024/01/22 11:10:43;;;;;;;1.23;1.08;;;5.90;92.00;;;;;;4951454;28;20047;-71
2024/01/22 11:13:10;;;;;;;1.23;1.00;;;6.00;91.90;;;;;;4930209;29;20036;-71
2024/01/22 11:15:35;;;;;;;0.98;0.93;;;6.10;93.50;;;;;;4948131;28;20057;-71
2024/01/22 11:18:01;;;;;;;1.08;1.00;;;6.20;93.40;;;;;;4948689;29;20035;-74
2024/01/22 11:20:27;;;;;;;1.00;1.00;;;6.20;94.40;;;;;;4943299;28;20035;-70
2024/01/22 11:23:00;;;;;;;2.05;0.98;;;6.30;94.10;;;;;;4941902;28;20047;-71
2024/01/22 11:25:26;;;;;;;0.98;0.90;;;6.40;93.80;;;;;;4943923;29;20586;-73
2024/01/22 11:28:07;;;;;;;1.10;1.00;;;6.50;93.80;;;;;;4930055;29;20031;-72
2024/01/22 11:30:36;;;;;;;1.20;1.05;;;6.50;94.30;;;;;;4930736;29;20035;-72
2024/01/22 11:33:22;;;;;;;0.93;0.93;;;6.60;94.50;;;;;;4946843;28;20890;-70
2024/01/22 11:35:48;;;;;;;1.58;0.95;;;6.70;95.00;;;;;;4939995;28;20036;-70
2024/01/22 11:38:14;;;;;;;2.28;1.40;;;6.80;94.60;;;;;;4947094;28;20042;-72
2024/01/22 11:40:52;;;;;;;1.75;1.05;;;7.00;94.20;;;;;;4931361;28;20440;-71
2024/01/22 11:43:20;;;;;;;0.93;0.93;;;7.20;93.60;;;;;;4937235;29;20035;-70
2024/01/22 11:45:46;;;;;;;0.87;0.87;;;7.30;94.30;;;;;;4938299;28;20588;-70
2024/01/22 11:48:22;;;;;;;1.80;1.17;;;7.30;94.10;;;;;;4943131;29;20784;-71
2024/01/22 11:51:04;;;;;;;1.50;0.80;;;7.30;94.60;;;;;;4940340;28;20043;-71
2024/01/22 11:53:31;;;;;;;1.85;0.70;;;7.50;93.80;;;;;;4939506;29;20031;-71
2024/01/22 11:56:04;;;;;;;1.55;0.90;;;7.60;93.60;;;;;;4945885;28;20476;-71
2024/01/22 11:58:31;;;;;;;1.10;0.98;;;7.60;93.70;;;;;;4942512;28;20036;-73
2024/01/22 12:01:03;;;;;;;1.10;1.00;;;7.60;94.00;;;;;;4943265;28;20128;-70
2024/01/22 12:03:30;;;;;;;1.00;1.00;;;7.60;94.40;;;;;;4924101;29;20886;-72
2024/01/22 12:06:06;;;;;;;0.90;0.90;;;7.70;94.60;;;;;;4942025;28;20035;-71
2024/01/22 12:08:32;;;;;;;1.52;1.00;;;7.80;95.00;;;;;;4920839;29;20037;-70
2024/01/22 12:11:14;;;;;;;1.10;1.00;;;7.80;95.00;;;;;;4928367;29;20082;-71
2024/01/22 12:13:42;;;;;;;1.25;0.80;;;7.80;94.30;;;;;;4941738;28;20031;-70
2024/01/22 12:16:26;;;;;;;0.45;0.45;;;7.80;94.90;;;;;;4942152;29;20035;-72
2024/01/22 12:18:52;;;;;;;0.65;0.65;;;7.90;95.30;;;;;;4940964;29;20461;-70
2024/01/22 12:21:20;;;;;;;1.20;1.20;;;7.80;95.10;;;;;;4940989;29;20139;-70
2024/01/22 12:23:46;;;;;;;0.93;0.93;;;7.90;95.30;;;;;;4940640;28;20055;-72
2024/01/22 12:26:23;;;;;;;1.02;0.93;;;7.90;95.80;;;;;;4927695;29;20040;-72
2024/01/22 12:28:51;;;;;;;1.20;1.10;;;8.00;95.90;;;;;;4942358;28;20062;-70
2024/01/22 12:31:20;;;;;;;1.00;1.00;;;8.00;95.90;;;;;;4929801;29;20101;-70
2024/01/22 12:33:46;;;;;;;1.13;1.02;;;8.10;96.10;;;;;;4924706;29;20066;-73
2024/01/22 12:36:14;;;;;;;1.55;0.80;;;8.10;95.60;;;;;;4945852;29;20023;-71
2024/01/22 12:38:51;;;;;;;1.00;0.90;;;8.10;95.90;;;;;;4933629;29;20028;-70
2024/01/22 12:41:18;;;;;;;1.00;1.00;;;8.20;95.30;;;;;;4941462;29;20397;-71
2024/01/22 12:43:44;;;;;;;0.80;0.80;;;8.20;95.90;;;;;;4925258;29;20181;-71
2024/01/22 12:46:15;;;;;;;0.70;0.70;;;8.30;95.20;;;;;;4939442;28;20295;-71
2024/01/22 12:48:43;;;;;;;0.80;0.80;;;8.30;95.30;;;;;;4941685;29;20035;-71
2024/01/22 12:51:09;;;;;;;1.10;1.00;;;8.30;96.40;;;;;;4942276;28;20067;-70